Portada
METAR-TAF:

METAR-TAF

Aeropuertos :

Aeropuerto de Akulivik

Akulivik, Quebec, Canadá

latitud: 60-49N, longitud: 078-09W, altitud: 20 m

Observación

El informe se hizo hace 1 hora y 7 minutos, a las 16:00 UTC
Viento 32 kt del norte con ráfagas de 39 kt
Temperatura -6°C
Humedad 93%
Presión 988 hPa
Visibilidad: 0.4 km
Cielo cubierto a una altura de 2100 ft
poca nieve, Ventisca alta de nieve

METAR: CYKO 171600Z 01032G39KT 1/4SM -SN BLSN OVC021 M06/M07 A2918 RMK BLSN2SC6 SLP886

Hora: 12:07 (17:07 UTC)


TAF: falta

Observaciones y pronósticos meteorológicos de más de 4000 aeropuertos (mensajes METAR y TAF).

Los puntos amarillos y rojos representan las estaciones disponibles.

Ponga el ratón en el punto deseado para ver el nombre de la estación.

Haga clic para ver las observaciones y los pronósticos meteorológicos.

Para cambiar el mapa : haga clic en los botones verdes con una cruz de color negro para hacer un zoom, en el botón verde con un guión para alejar o en las flechas verdes para mapas adyacentes.


METAR-TAF: